logo
Search for airport 
image banner adimage banner adimage banner ad
image banner ad

CJO3 - Jenkins Cove

Located in Kars, Canada

ICAO - , IATA -

Data provided by Airmate  

General information

Coordinates: N45°35'38" W65°57'25"
Elevation is 20 feet MSL.
Magnetic variation is -17.4167° East
View others Airports in New Brunswick

Operational data

Special qualification required
Current time UTC:
Current local time:
Weather at : CYSJ - Saint John ( 31 km )
METAR: CYSJ 231700Z CCA 35012G21KT 15SM FEW030 BKN260 17/08 A3007 RMK SC1CI5 SLP186 DENSITY ALT 600FT
TAF: TAF CYSJ 231140Z 2312/2324 34012G22KT P6SM SCT020 OVC050 TEMPO 2312/2314 6SM -SHRA BR BKN020 OVC050 FM231400 35010G20KT P6SM SCT025 TEMPO 2314/2316 BKN020 BECMG 2316/2318 35012KT FM232300 09006KT P6SM SCT050 RMK NXT FCST BY 231800Z
View NOTAMs / SUP AIP / TFR affecting this airport [VIEW]
Communications frequencies: [VIEW]

Runways:

RWY identifierQFULength (ft)Width (ft)SurfaceLDA (ft)
W00WATER

Airport contact information

Address: Kars Canada

Satellite view of CJO3